sensor_id;sensor_type;location;lat;lon;timestamp;pressure;altitude;pressure_sealevel;temperature;humidity
55576;BME280;41437;45.478;9.116;2022-08-01T00:01:26;99686.28;;;29.70;36.02
55576;BME280;41437;45.478;9.116;2022-08-01T00:04:29;99686.66;;;29.68;36.13
55576;BME280;41437;45.478;9.116;2022-08-01T00:07:31;99684.22;;;29.67;36.11
55576;BME280;41437;45.478;9.116;2022-08-01T00:10:32;99681.78;;;29.65;36.10
55576;BME280;41437;45.478;9.116;2022-08-01T00:13:33;99685.00;;;29.64;36.00
55576;BME280;41437;45.478;9.116;2022-08-01T00:16:35;99682.97;;;29.61;36.12
55576;BME280;41437;45.478;9.116;2022-08-01T00:19:38;99686.19;;;29.59;36.33
55576;BME280;41437;45.478;9.116;2022-08-01T00:22:39;99692.28;;;29.58;36.41
55576;BME280;41437;45.478;9.116;2022-08-01T00:25:41;99692.66;;;29.56;36.38
55576;BME280;41437;45.478;9.116;2022-08-01T00:28:42;99690.19;;;29.54;36.35
55576;BME280;41437;45.478;9.116;2022-08-01T00:31:43;99690.59;;;29.53;36.40
55576;BME280;41437;45.478;9.116;2022-08-01T00:34:46;99689.34;;;29.50;36.33
55576;BME280;41437;45.478;9.116;2022-08-01T00:37:48;99695.00;;;29.50;36.52
55576;BME280;41437;45.478;9.116;2022-08-01T00:40:49;99701.09;;;29.49;36.34
55576;BME280;41437;45.478;9.116;2022-08-01T00:43:51;99689.69;;;29.45;36.66
55576;BME280;41437;45.478;9.116;2022-08-01T00:46:52;99700.25;;;29.45;36.52
55576;BME280;41437;45.478;9.116;2022-08-01T00:49:55;99700.66;;;29.43;36.77
55576;BME280;41437;45.478;9.116;2022-08-01T00:52:57;99700.19;;;29.41;36.46
55576;BME280;41437;45.478;9.116;2022-08-01T00:55:59;99698.59;;;29.40;36.59
55576;BME280;41437;45.478;9.116;2022-08-01T00:59:00;99698.97;;;29.39;36.65
55576;BME280;41437;45.478;9.116;2022-08-01T01:02:04;99698.53;;;29.37;36.81
55576;BME280;41437;45.478;9.116;2022-08-01T01:05:07;99699.75;;;29.36;36.83
55576;BME280;41437;45.478;9.116;2022-08-01T01:08:11;99700.97;;;29.35;36.80
55576;BME280;41437;45.478;9.116;2022-08-01T01:11:16;99701.34;;;29.33;36.86
55576;BME280;41437;45.478;9.116;2022-08-01T01:14:23;99692.41;;;29.31;36.72
55576;BME280;41437;45.478;9.116;2022-08-01T01:17:31;99689.94;;;29.29;36.92
55576;BME280;41437;45.478;9.116;2022-08-01T01:20:35;99694.00;;;29.28;36.70
55576;BME280;41437;45.478;9.116;2022-08-01T01:23:43;99694.00;;;29.28;36.72
55576;BME280;41437;45.478;9.116;2022-08-01T01:26:50;99691.94;;;29.25;36.77
55576;BME280;41437;45.478;9.116;2022-08-01T01:29:56;99693.97;;;29.25;36.90
55576;BME280;41437;45.478;9.116;2022-08-01T01:32:58;99689.91;;;29.22;37.04
55576;BME280;41437;45.478;9.116;2022-08-01T01:36:03;99690.28;;;29.21;37.10
55576;BME280;41437;45.478;9.116;2022-08-01T01:39:06;99688.66;;;29.20;37.07
55576;BME280;41437;45.478;9.116;2022-08-01T01:42:08;99688.25;;;29.18;37.02
55576;BME280;41437;45.478;9.116;2022-08-01T01:45:11;99677.25;;;29.16;37.03
55576;BME280;41437;45.478;9.116;2022-08-01T01:48:13;99676.44;;;29.16;37.05
55576;BME280;41437;45.478;9.116;2022-08-01T01:51:15;99666.69;;;29.10;37.30
55576;BME280;41437;45.478;9.116;2022-08-01T01:54:17;99674.41;;;29.13;37.24
55576;BME280;41437;45.478;9.116;2022-08-01T01:57:19;99670.72;;;29.12;37.34
55576;BME280;41437;45.478;9.116;2022-08-01T02:00:22;99678.03;;;29.10;37.08
55576;BME280;41437;45.478;9.116;2022-08-01T02:03:24;99680.41;;;29.08;37.27
55576;BME280;41437;45.478;9.116;2022-08-01T02:06:27;99688.13;;;29.07;37.37
55576;BME280;41437;45.478;9.116;2022-08-01T02:09:29;99685.69;;;29.05;37.40
55576;BME280;41437;45.478;9.116;2022-08-01T02:12:32;99683.25;;;29.04;37.45
55576;BME280;41437;45.478;9.116;2022-08-01T02:15:37;99690.91;;;29.03;37.31
55576;BME280;41437;45.478;9.116;2022-08-01T02:18:39;99684.00;;;29.01;37.47
55576;BME280;41437;45.478;9.116;2022-08-01T02:21:44;99687.22;;;28.99;37.42
55576;BME280;41437;45.478;9.116;2022-08-01T02:24:49;99688.44;;;28.98;37.40
55576;BME280;41437;45.478;9.116;2022-08-01T02:27:52;99693.28;;;28.98;37.57
55576;BME280;41437;45.478;9.116;2022-08-01T02:30:56;99693.69;;;28.96;37.57
55576;BME280;41437;45.478;9.116;2022-08-01T02:34:02;99693.22;;;28.94;37.52
55576;BME280;41437;45.478;9.116;2022-08-01T02:37:05;99689.97;;;28.92;37.56
55576;BME280;41437;45.478;9.116;2022-08-01T02:40:07;99703.34;;;28.92;37.61
55576;BME280;41437;45.478;9.116;2022-08-01T02:43:10;99700.88;;;28.90;37.69
55576;BME280;41437;45.478;9.116;2022-08-01T02:46:16;99696.81;;;28.88;37.79
55576;BME280;41437;45.478;9.116;2022-08-01T02:49:19;99702.84;;;28.86;37.60
55576;BME280;41437;45.478;9.116;2022-08-01T02:52:21;99698.38;;;28.85;37.60
55576;BME280;41437;45.478;9.116;2022-08-01T02:55:24;99707.28;;;28.84;37.76
55576;BME280;41437;45.478;9.116;2022-08-01T02:58:26;99702.00;;;28.82;37.91
55576;BME280;41437;45.478;9.116;2022-08-01T03:01:30;99708.06;;;28.80;37.78
55576;BME280;41437;45.478;9.116;2022-08-01T03:04:32;99711.28;;;28.79;37.79
55576;BME280;41437;45.478;9.116;2022-08-01T03:07:34;99718.16;;;28.78;38.03
55576;BME280;41437;45.478;9.116;2022-08-01T03:10:38;99712.06;;;28.76;37.86
55576;BME280;41437;45.478;9.116;2022-08-01T03:13:40;99710.44;;;28.75;37.95
55576;BME280;41437;45.478;9.116;2022-08-01T03:16:45;99708.81;;;28.74;37.86
55576;BME280;41437;45.478;9.116;2022-08-01T03:19:47;99714.84;;;28.72;37.96
55576;BME280;41437;45.478;9.116;2022-08-01T03:22:49;99709.56;;;28.71;38.17
55576;BME280;41437;45.478;9.116;2022-08-01T03:25:52;99708.75;;;28.70;38.01
55576;BME280;41437;45.478;9.116;2022-08-01T03:28:55;99710.34;;;28.68;38.28
55576;BME280;41437;45.478;9.116;2022-08-01T03:31:58;99704.66;;;28.68;38.25
55576;BME280;41437;45.478;9.116;2022-08-01T03:35:01;99705.47;;;28.65;38.33
55576;BME280;41437;45.478;9.116;2022-08-01T03:38:02;99703.81;;;28.64;38.41
55576;BME280;41437;45.478;9.116;2022-08-01T03:41:05;99702.19;;;28.63;38.55
55576;BME280;41437;45.478;9.116;2022-08-01T03:44:10;99700.56;;;28.62;38.31
55576;BME280;41437;45.478;9.116;2022-08-01T03:47:14;99702.13;;;28.59;38.39
55576;BME280;41437;45.478;9.116;2022-08-01T03:50:19;99699.69;;;28.58;38.42
55576;BME280;41437;45.478;9.116;2022-08-01T03:53:22;99697.25;;;28.56;38.63
55576;BME280;41437;45.478;9.116;2022-08-01T03:56:25;99704.91;;;28.55;38.41
55576;BME280;41437;45.478;9.116;2022-08-01T03:59:28;99711.78;;;28.54;38.36
55576;BME280;41437;45.478;9.116;2022-08-01T04:02:31;99713.81;;;28.54;38.54
55576;BME280;41437;45.478;9.116;2022-08-01T04:05:32;99708.09;;;28.50;38.58
55576;BME280;41437;45.478;9.116;2022-08-01T04:08:34;99716.19;;;28.48;38.60
55576;BME280;41437;45.478;9.116;2022-08-01T04:11:36;99715.72;;;28.46;38.54
55576;BME280;41437;45.478;9.116;2022-08-01T04:14:38;99719.78;;;28.45;38.49
55576;BME280;41437;45.478;9.116;2022-08-01T04:17:41;99718.16;;;28.44;38.56
55576;BME280;41437;45.478;9.116;2022-08-01T04:20:42;99718.50;;;28.43;38.58
55576;BME280;41437;45.478;9.116;2022-08-01T04:23:44;99723.38;;;28.42;38.83
55576;BME280;41437;45.478;9.116;2022-08-01T04:26:47;99721.75;;;28.41;38.89
55576;BME280;41437;45.478;9.116;2022-08-01T04:29:51;99721.31;;;28.39;38.83
55576;BME280;41437;45.478;9.116;2022-08-01T04:32:56;99718.03;;;28.37;38.97
55576;BME280;41437;45.478;9.116;2022-08-01T04:36:00;99719.25;;;28.36;38.88
55576;BME280;41437;45.478;9.116;2022-08-01T04:39:02;99726.94;;;28.36;38.91
55576;BME280;41437;45.478;9.116;2022-08-01T04:42:05;99729.28;;;28.34;39.08
55576;BME280;41437;45.478;9.116;2022-08-01T04:45:08;99729.69;;;28.32;38.92
55576;BME280;41437;45.478;9.116;2022-08-01T04:48:11;99730.88;;;28.31;38.85
55576;BME280;41437;45.478;9.116;2022-08-01T04:51:14;99739.75;;;28.29;39.15
55576;BME280;41437;45.478;9.116;2022-08-01T04:54:16;99727.59;;;28.29;39.09
55576;BME280;41437;45.478;9.116;2022-08-01T04:57:18;99730.84;;;28.27;39.05
55576;BME280;41437;45.478;9.116;2022-08-01T05:00:19;99737.72;;;28.26;38.85
55576;BME280;41437;45.478;9.116;2022-08-01T05:03:22;99732.41;;;28.25;39.12
55576;BME280;41437;45.478;9.116;2022-08-01T05:06:24;99737.25;;;28.24;39.08
55576;BME280;41437;45.478;9.116;2022-08-01T05:09:25;99738.47;;;28.23;39.09
55576;BME280;41437;45.478;9.116;2022-08-01T05:12:27;99738.84;;;28.22;39.21
55576;BME280;41437;45.478;9.116;2022-08-01T05:15:29;99727.53;;;28.22;39.15
55576;BME280;41437;45.478;9.116;2022-08-01T05:18:32;99734.38;;;28.21;39.29
55576;BME280;41437;45.478;9.116;2022-08-01T05:21:34;99741.25;;;28.20;39.21
55576;BME280;41437;45.478;9.116;2022-08-01T05:24:36;99740.44;;;28.19;39.17
55576;BME280;41437;45.478;9.116;2022-08-01T05:27:37;99737.97;;;28.18;39.23
55576;BME280;41437;45.478;9.116;2022-08-01T05:30:39;99733.50;;;28.17;39.22
55576;BME280;41437;45.478;9.116;2022-08-01T05:33:42;99735.50;;;28.16;39.40
55576;BME280;41437;45.478;9.116;2022-08-01T05:36:44;99738.75;;;28.15;39.42
55576;BME280;41437;45.478;9.116;2022-08-01T05:39:45;99739.56;;;28.15;39.41
55576;BME280;41437;45.478;9.116;2022-08-01T05:42:47;99731.44;;;28.14;39.26
55576;BME280;41437;45.478;9.116;2022-08-01T05:45:48;99741.97;;;28.13;39.52
55576;BME280;41437;45.478;9.116;2022-08-01T05:48:51;99739.13;;;28.13;39.54
55576;BME280;41437;45.478;9.116;2022-08-01T05:51:52;99738.31;;;28.13;39.57
55576;BME280;41437;45.478;9.116;2022-08-01T05:54:54;99737.47;;;28.12;39.38
55576;BME280;41437;45.478;9.116;2022-08-01T05:57:55;99741.16;;;28.13;39.37
55576;BME280;41437;45.478;9.116;2022-08-01T06:00:57;99740.31;;;28.12;39.24
55576;BME280;41437;45.478;9.116;2022-08-01T06:03:59;99742.31;;;28.12;39.23
55576;BME280;41437;45.478;9.116;2022-08-01T06:07:01;99742.31;;;28.12;39.34
55576;BME280;41437;45.478;9.116;2022-08-01T06:10:02;99736.66;;;28.12;39.53
55576;BME280;41437;45.478;9.116;2022-08-01T06:13:04;99750.47;;;28.13;39.66
55576;BME280;41437;45.478;9.116;2022-08-01T06:16:05;99744.00;;;28.13;39.53
55576;BME280;41437;45.478;9.116;2022-08-01T06:19:08;99742.78;;;28.14;39.45
55576;BME280;41437;45.478;9.116;2022-08-01T06:22:10;99742.78;;;28.14;39.28
55576;BME280;41437;45.478;9.116;2022-08-01T06:25:11;99744.41;;;28.15;39.23
55576;BME280;41437;45.478;9.116;2022-08-01T06:28:13;99748.88;;;28.16;39.21
55576;BME280;41437;45.478;9.116;2022-08-01T06:31:14;99739.56;;;28.15;39.27
55576;BME280;41437;45.478;9.116;2022-08-01T06:34:17;99740.38;;;28.16;39.30
55576;BME280;41437;45.478;9.116;2022-08-01T06:37:18;99746.03;;;28.16;39.45
55576;BME280;41437;45.478;9.116;2022-08-01T06:40:20;99758.19;;;28.16;39.34
55576;BME280;41437;45.478;9.116;2022-08-01T06:43:21;99752.97;;;28.18;39.27
55576;BME280;41437;45.478;9.116;2022-08-01T06:46:23;99755.78;;;28.18;39.25
55576;BME280;41437;45.478;9.116;2022-08-01T06:49:25;99756.59;;;28.19;39.51
55576;BME280;41437;45.478;9.116;2022-08-01T06:52:27;99752.56;;;28.20;39.44
55576;BME280;41437;45.478;9.116;2022-08-01T06:55:28;99752.56;;;28.20;39.15
55576;BME280;41437;45.478;9.116;2022-08-01T06:58:30;99750.19;;;28.22;39.36
55576;BME280;41437;45.478;9.116;2022-08-01T07:01:32;99751.81;;;28.23;39.25
55576;BME280;41437;45.478;9.116;2022-08-01T07:04:34;99753.44;;;28.24;39.56
55576;BME280;41437;45.478;9.116;2022-08-01T07:07:36;99751.41;;;28.24;39.46
55576;BME280;41437;45.478;9.116;2022-08-01T07:10:37;99753.06;;;28.25;39.32
55576;BME280;41437;45.478;9.116;2022-08-01T07:13:39;99751.06;;;28.26;39.76
55576;BME280;41437;45.478;9.116;2022-08-01T07:16:40;99750.66;;;28.27;39.46
55576;BME280;41437;45.478;9.116;2022-08-01T07:19:43;99764.44;;;28.29;39.69
55576;BME280;41437;45.478;9.116;2022-08-01T07:22:44;99764.44;;;28.29;39.94
55576;BME280;41437;45.478;9.116;2022-08-01T07:25:46;99753.91;;;28.29;39.96
55576;BME280;41437;45.478;9.116;2022-08-01T07:28:49;99758.41;;;28.30;39.93
55576;BME280;41437;45.478;9.116;2022-08-01T07:31:50;99762.88;;;28.31;40.12
55576;BME280;41437;45.478;9.116;2022-08-01T07:34:54;99758.00;;;28.32;39.73
55576;BME280;41437;45.478;9.116;2022-08-01T07:37:55;99762.13;;;28.35;39.94
55576;BME280;41437;45.478;9.116;2022-08-01T07:40:57;99762.56;;;28.37;40.25
55576;BME280;41437;45.478;9.116;2022-08-01T07:43:58;99755.69;;;28.38;40.36
55576;BME280;41437;45.478;9.116;2022-08-01T07:47:00;99759.34;;;28.38;40.27
55576;BME280;41437;45.478;9.116;2022-08-01T07:50:03;99750.84;;;28.38;40.39
55576;BME280;41437;45.478;9.116;2022-08-01T07:53:05;99758.97;;;28.40;40.08
55576;BME280;41437;45.478;9.116;2022-08-01T07:56:06;99752.91;;;28.41;40.07
55576;BME280;41437;45.478;9.116;2022-08-01T07:59:08;99757.00;;;28.44;40.49
55576;BME280;41437;45.478;9.116;2022-08-01T08:02:09;99758.63;;;28.45;40.41
55576;BME280;41437;45.478;9.116;2022-08-01T08:05:12;99752.56;;;28.46;40.93
55576;BME280;41437;45.478;9.116;2022-08-01T08:08:14;99757.06;;;28.47;40.53
55576;BME280;41437;45.478;9.116;2022-08-01T08:11:17;99757.47;;;28.49;40.68
55576;BME280;41437;45.478;9.116;2022-08-01T08:14:18;99753.06;;;28.52;40.79
55576;BME280;41437;45.478;9.116;2022-08-01T08:17:22;99759.56;;;28.52;40.74
55576;BME280;41437;45.478;9.116;2022-08-01T08:20:26;99765.66;;;28.54;41.01
55576;BME280;41437;45.478;9.116;2022-08-01T08:23:29;99760.78;;;28.55;40.60
55576;BME280;41437;45.478;9.116;2022-08-01T08:26:48;99754.75;;;28.57;40.95
55576;BME280;41437;45.478;9.116;2022-08-01T08:29:50;99769.75;;;28.57;40.90
55576;BME280;41437;45.478;9.116;2022-08-01T08:32:52;99762.88;;;28.58;41.17
55576;BME280;41437;45.478;9.116;2022-08-01T08:35:55;99753.97;;;28.60;41.12
55576;BME280;41437;45.478;9.116;2022-08-01T08:38:57;99757.25;;;28.62;41.18
55576;BME280;41437;45.478;9.116;2022-08-01T08:42:00;99759.69;;;28.63;41.39
55576;BME280;41437;45.478;9.116;2022-08-01T08:45:03;99761.31;;;28.64;41.23
55576;BME280;41437;45.478;9.116;2022-08-01T08:48:04;99757.31;;;28.65;41.34
55576;BME280;41437;45.478;9.116;2022-08-01T08:51:08;99758.53;;;28.68;41.23
55576;BME280;41437;45.478;9.116;2022-08-01T08:54:11;99759.34;;;28.68;41.53
55576;BME280;41437;45.478;9.116;2022-08-01T08:57:14;99760.59;;;28.71;41.34
55576;BME280;41437;45.478;9.116;2022-08-01T09:00:16;99757.38;;;28.72;41.34
55576;BME280;41437;45.478;9.116;2022-08-01T09:03:18;99754.16;;;28.74;41.34
55576;BME280;41437;45.478;9.116;2022-08-01T09:06:21;99755.41;;;28.76;41.57
55576;BME280;41437;45.478;9.116;2022-08-01T09:09:22;99753.00;;;28.78;41.54
55576;BME280;41437;45.478;9.116;2022-08-01T09:12:24;99748.97;;;28.79;41.45
55576;BME280;41437;45.478;9.116;2022-08-01T09:15:29;99748.56;;;28.81;41.55
55576;BME280;41437;45.478;9.116;2022-08-01T09:18:38;99759.16;;;28.84;41.42
55576;BME280;41437;45.478;9.116;2022-08-01T09:21:54;99748.63;;;28.85;41.52
55576;BME280;41437;45.478;9.116;2022-08-01T09:24:57;99746.22;;;28.87;41.60
55576;BME280;41437;45.478;9.116;2022-08-01T09:28:04;99751.91;;;28.90;41.50
55576;BME280;41437;45.478;9.116;2022-08-01T09:31:07;99747.91;;;28.91;41.67
55576;BME280;41437;45.478;9.116;2022-08-01T09:34:09;99750.34;;;28.93;41.59
55576;BME280;41437;45.478;9.116;2022-08-01T09:37:12;99750.41;;;28.96;41.55
55576;BME280;41437;45.478;9.116;2022-08-01T09:40:14;99746.38;;;28.97;41.45
55576;BME280;41437;45.478;9.116;2022-08-01T09:43:15;99748.44;;;29.00;41.58
55576;BME280;41437;45.478;9.116;2022-08-01T09:46:17;99744.41;;;29.01;41.04
55576;BME280;41437;45.478;9.116;2022-08-01T09:49:29;99744.81;;;29.03;41.21
55576;BME280;41437;45.478;9.116;2022-08-01T09:52:32;99735.94;;;29.05;41.18
55576;BME280;41437;45.478;9.116;2022-08-01T09:55:33;99736.34;;;29.07;41.26
55576;BME280;41437;45.478;9.116;2022-08-01T09:58:38;99733.94;;;29.09;41.47
55576;BME280;41437;45.478;9.116;2022-08-01T10:01:49;99732.34;;;29.12;41.16
55576;BME280;41437;45.478;9.116;2022-08-01T10:04:51;99721.44;;;29.14;41.03
55576;BME280;41437;45.478;9.116;2022-08-01T10:07:57;99726.31;;;29.17;40.87
55576;BME280;41437;45.478;9.116;2022-08-01T10:11:06;99719.06;;;29.19;40.65
55576;BME280;41437;45.478;9.116;2022-08-01T10:14:08;99717.84;;;29.20;40.83
55576;BME280;41437;45.478;9.116;2022-08-01T10:17:13;99719.09;;;29.23;41.00
55576;BME280;41437;45.478;9.116;2022-08-01T10:20:14;99718.31;;;29.26;40.91
55576;BME280;41437;45.478;9.116;2022-08-01T10:23:17;99718.72;;;29.28;41.10
55576;BME280;41437;45.478;9.116;2022-08-01T10:26:19;99714.31;;;29.30;41.03
55576;BME280;41437;45.478;9.116;2022-08-01T10:29:21;99713.50;;;29.34;40.49
55576;BME280;41437;45.478;9.116;2022-08-01T10:32:24;99711.09;;;29.36;40.37
55576;BME280;41437;45.478;9.116;2022-08-01T10:35:26;99713.19;;;29.39;40.19
55576;BME280;41437;45.478;9.116;2022-08-01T10:38:30;99703.03;;;29.41;40.32
55576;BME280;41437;45.478;9.116;2022-08-01T10:41:32;99693.75;;;29.44;40.54
55576;BME280;41437;45.478;9.116;2022-08-01T10:44:34;99694.97;;;29.47;40.61
55576;BME280;41437;45.478;9.116;2022-08-01T10:47:38;99692.94;;;29.47;40.63
55576;BME280;41437;45.478;9.116;2022-08-01T10:50:42;99699.91;;;29.53;40.32
55576;BME280;41437;45.478;9.116;2022-08-01T10:53:51;99695.84;;;29.54;40.45
55576;BME280;41437;45.478;9.116;2022-08-01T10:56:53;99687.81;;;29.57;40.73
55576;BME280;41437;45.478;9.116;2022-08-01T10:59:56;99691.06;;;29.59;40.74
55576;BME280;41437;45.478;9.116;2022-08-01T11:03:02;99682.13;;;29.60;40.20
55576;BME280;41437;45.478;9.116;2022-08-01T11:06:04;99677.72;;;29.63;40.56
55576;BME280;41437;45.478;9.116;2022-08-01T11:09:18;99670.81;;;29.64;40.40
55576;BME280;41437;45.478;9.116;2022-08-01T11:12:21;99651.56;;;30.74;69.04
55576;BME280;41437;45.478;9.116;2022-08-01T18:32:42;99447.22;;;32.11;29.77
55576;BME280;41437;45.478;9.116;2022-08-01T18:35:43;99449.63;;;32.12;30.18
55576;BME280;41437;45.478;9.116;2022-08-01T18:38:48;99451.31;;;32.10;29.58
55576;BME280;41437;45.478;9.116;2022-08-01T18:41:49;99463.91;;;32.09;29.82
55576;BME280;41437;45.478;9.116;2022-08-01T18:44:51;99463.13;;;32.05;29.92
55576;BME280;41437;45.478;9.116;2022-08-01T18:47:54;99467.19;;;32.07;30.08
55576;BME280;41437;45.478;9.116;2022-08-01T18:50:56;99480.19;;;32.08;30.42
55576;BME280;41437;45.478;9.116;2022-08-01T18:54:00;99474.53;;;32.05;30.55
55576;BME280;41437;45.478;9.116;2022-08-01T18:57:01;99477.78;;;32.03;30.72
55576;BME280;41437;45.478;9.116;2022-08-01T19:00:04;99485.16;;;32.00;30.86
55576;BME280;41437;45.478;9.116;2022-08-01T19:03:07;99477.41;;;31.97;31.05
55576;BME280;41437;45.478;9.116;2022-08-01T19:06:09;99477.84;;;31.96;31.38
55576;BME280;41437;45.478;9.116;2022-08-01T19:09:11;99473.78;;;31.93;31.54
55576;BME280;41437;45.478;9.116;2022-08-01T19:12:12;99481.50;;;31.93;31.63
55576;BME280;41437;45.478;9.116;2022-08-01T19:15:14;99478.25;;;31.91;31.38
55576;BME280;41437;45.478;9.116;2022-08-01T19:18:17;99483.56;;;31.85;31.34
55576;BME280;41437;45.478;9.116;2022-08-01T19:21:18;99478.66;;;31.82;31.67
55576;BME280;41437;45.478;9.116;2022-08-01T19:24:20;99473.41;;;31.77;31.81
55576;BME280;41437;45.478;9.116;2022-08-01T19:27:23;99490.50;;;31.73;31.82
55576;BME280;41437;45.478;9.116;2022-08-01T19:30:26;99492.16;;;31.74;31.70
55576;BME280;41437;45.478;9.116;2022-08-01T19:33:31;99496.19;;;31.77;31.85
55576;BME280;41437;45.478;9.116;2022-08-01T19:36:33;99503.94;;;31.69;32.20
55576;BME280;41437;45.478;9.116;2022-08-01T19:39:35;99503.56;;;31.64;32.26
55576;BME280;41437;45.478;9.116;2022-08-01T19:42:39;99501.97;;;31.56;32.34
55576;BME280;41437;45.478;9.116;2022-08-01T19:45:42;99506.84;;;31.51;31.93
55576;BME280;41437;45.478;9.116;2022-08-01T19:48:45;99495.47;;;31.51;31.92
55576;BME280;41437;45.478;9.116;2022-08-01T19:51:50;99496.69;;;31.50;31.79
55576;BME280;41437;45.478;9.116;2022-08-01T19:54:54;99504.00;;;31.55;31.93
55576;BME280;41437;45.478;9.116;2022-08-01T19:57:56;99508.09;;;31.50;31.82
55576;BME280;41437;45.478;9.116;2022-08-01T20:00:58;99514.63;;;31.44;32.01
55576;BME280;41437;45.478;9.116;2022-08-01T20:04:02;99514.16;;;31.60;31.82
55576;BME280;41437;45.478;9.116;2022-08-01T20:07:04;99521.06;;;31.66;31.59
55576;BME280;41437;45.478;9.116;2022-08-01T20:10:07;99520.66;;;31.67;31.71
55576;BME280;41437;45.478;9.116;2022-08-01T20:13:10;99519.03;;;31.66;31.83
55576;BME280;41437;45.478;9.116;2022-08-01T20:16:12;99529.63;;;31.66;31.77
55576;BME280;41437;45.478;9.116;2022-08-01T20:19:16;99531.66;;;31.65;31.75
55576;BME280;41437;45.478;9.116;2022-08-01T20:22:21;99537.34;;;31.65;31.77
55576;BME280;41437;45.478;9.116;2022-08-01T20:25:27;99543.06;;;31.65;31.89
55576;BME280;41437;45.478;9.116;2022-08-01T20:28:29;99549.94;;;31.64;31.88
55576;BME280;41437;45.478;9.116;2022-08-01T20:31:31;99540.19;;;31.62;31.95
55576;BME280;41437;45.478;9.116;2022-08-01T20:34:36;99548.75;;;31.62;31.88
55576;BME280;41437;45.478;9.116;2022-08-01T20:37:38;99546.28;;;31.60;31.96
55576;BME280;41437;45.478;9.116;2022-08-01T20:40:41;99545.47;;;31.60;31.93
55576;BME280;41437;45.478;9.116;2022-08-01T20:43:44;99549.56;;;31.59;32.02
55576;BME280;41437;45.478;9.116;2022-08-01T20:46:48;99534.94;;;31.57;32.00
55576;BME280;41437;45.478;9.116;2022-08-01T20:49:51;99553.22;;;31.56;31.96
55576;BME280;41437;45.478;9.116;2022-08-01T20:53:13;99544.28;;;31.53;31.98
55576;BME280;41437;45.478;9.116;2022-08-01T20:56:18;99557.72;;;31.53;31.89
55576;BME280;41437;45.478;9.116;2022-08-01T20:59:28;99558.09;;;31.51;31.81
55576;BME280;41437;45.478;9.116;2022-08-01T21:02:40;99559.34;;;31.50;31.93
55576;BME280;41437;45.478;9.116;2022-08-01T21:05:53;99548.75;;;31.47;32.04
55576;BME280;41437;45.478;9.116;2022-08-01T21:08:58;99550.78;;;31.47;32.12
55576;BME280;41437;45.478;9.116;2022-08-01T21:12:04;99551.22;;;31.45;31.90
55576;BME280;41437;45.478;9.116;2022-08-01T21:15:07;99548.78;;;31.44;32.14
55576;BME280;41437;45.478;9.116;2022-08-01T21:18:17;99547.56;;;31.41;32.13
55576;BME280;41437;45.478;9.116;2022-08-01T21:21:23;99550.03;;;31.39;32.03
55576;BME280;41437;45.478;9.116;2022-08-01T21:24:33;99545.53;;;31.38;32.14
55576;BME280;41437;45.478;9.116;2022-08-01T21:27:38;99547.97;;;31.36;31.95
55576;BME280;41437;45.478;9.116;2022-08-01T21:30:40;99547.16;;;31.36;32.06
55576;BME280;41437;45.478;9.116;2022-08-01T21:33:44;99545.56;;;31.35;32.17
55576;BME280;41437;45.478;9.116;2022-08-01T21:36:47;99535.78;;;31.32;32.23
55576;BME280;41437;45.478;9.116;2022-08-01T21:39:49;99527.66;;;31.31;32.17
55576;BME280;41437;45.478;9.116;2022-08-01T21:42:52;99526.00;;;31.29;32.26
55576;BME280;41437;45.478;9.116;2022-08-01T21:45:54;99532.94;;;31.28;32.41
55576;BME280;41437;45.478;9.116;2022-08-01T21:48:57;99526.44;;;31.28;32.64
55576;BME280;41437;45.478;9.116;2022-08-01T21:52:03;99519.91;;;31.24;32.60
55576;BME280;41437;45.478;9.116;2022-08-01T21:55:15;99531.28;;;31.24;32.61
55576;BME280;41437;45.478;9.116;2022-08-01T21:58:28;99529.66;;;31.23;32.59
55576;BME280;41437;45.478;9.116;2022-08-01T22:01:39;99530.06;;;31.21;32.76
55576;BME280;41437;45.478;9.116;2022-08-01T22:04:46;99534.13;;;31.20;32.79
55576;BME280;41437;45.478;9.116;2022-08-01T22:07:52;99535.78;;;31.18;32.90
55576;BME280;41437;45.478;9.116;2022-08-01T22:10:57;99526.81;;;31.16;32.84
55576;BME280;41437;45.478;9.116;2022-08-01T22:14:02;99522.78;;;31.13;32.92
55576;BME280;41437;45.478;9.116;2022-08-01T22:17:06;99523.16;;;31.12;32.87
55576;BME280;41437;45.478;9.116;2022-08-01T22:20:08;99526.84;;;31.09;32.95
55576;BME280;41437;45.478;9.116;2022-08-01T22:23:12;99524.38;;;31.07;32.95
55576;BME280;41437;45.478;9.116;2022-08-01T22:26:14;99534.16;;;31.06;33.13
55576;BME280;41437;45.478;9.116;2022-08-01T22:29:16;99537.41;;;31.04;33.07
55576;BME280;41437;45.478;9.116;2022-08-01T22:32:18;99535.38;;;31.01;32.96
55576;BME280;41437;45.478;9.116;2022-08-01T22:35:20;99532.94;;;31.00;33.15
55576;BME280;41437;45.478;9.116;2022-08-01T22:38:23;99534.56;;;30.97;33.12
55576;BME280;41437;45.478;9.116;2022-08-01T22:41:29;99538.63;;;30.96;33.15
55576;BME280;41437;45.478;9.116;2022-08-01T22:44:42;99535.38;;;30.94;32.96
55576;BME280;41437;45.478;9.116;2022-08-01T22:47:55;99533.75;;;30.93;33.18
55576;BME280;41437;45.478;9.116;2022-08-01T22:51:05;99538.19;;;30.91;32.99
55576;BME280;41437;45.478;9.116;2022-08-01T22:54:11;99541.47;;;30.89;33.08
55576;BME280;41437;45.478;9.116;2022-08-01T22:57:18;99539.03;;;30.88;33.00
55576;BME280;41437;45.478;9.116;2022-08-01T23:00:20;99541.44;;;30.86;33.09
55576;BME280;41437;45.478;9.116;2022-08-01T23:03:26;99544.72;;;30.84;33.01
55576;BME280;41437;45.478;9.116;2022-08-01T23:06:41;99545.94;;;30.83;33.03
55576;BME280;41437;45.478;9.116;2022-08-01T23:09:45;99539.81;;;30.81;33.16
55576;BME280;41437;45.478;9.116;2022-08-01T23:12:47;99536.59;;;30.79;33.15
55576;BME280;41437;45.478;9.116;2022-08-01T23:15:50;99537.78;;;30.78;33.05
55576;BME280;41437;45.478;9.116;2022-08-01T23:18:52;99538.19;;;30.76;33.14
55576;BME280;41437;45.478;9.116;2022-08-01T23:21:55;99537.00;;;30.74;33.24
55576;BME280;41437;45.478;9.116;2022-08-01T23:25:00;99538.19;;;30.73;33.35
55576;BME280;41437;45.478;9.116;2022-08-01T23:28:05;99537.75;;;30.71;33.23